createdAt,value
2022-11-04T00:01:30.033Z,11.40
2022-11-04T00:03:57.966Z,11.40
2022-11-04T00:06:26.388Z,11.40
2022-11-04T00:08:57.577Z,11.40
2022-11-04T00:11:44.165Z,11.40
2022-11-04T00:14:13.180Z,11.40
2022-11-04T00:16:58.344Z,11.40
2022-11-04T00:19:26.694Z,11.40
2022-11-04T00:22:13.615Z,11.40
2022-11-04T00:25:00.428Z,11.40
2022-11-04T00:27:45.931Z,11.40
2022-11-04T00:30:13.880Z,11.40
2022-11-04T00:32:59.099Z,11.40
2022-11-04T00:35:26.937Z,11.40
2022-11-04T00:37:54.785Z,11.40
2022-11-04T00:40:23.961Z,11.40
2022-11-04T00:42:51.814Z,11.40
2022-11-04T00:45:19.656Z,11.40
2022-11-04T00:47:47.529Z,11.40
2022-11-04T00:50:15.440Z,11.40
2022-11-04T00:52:43.257Z,11.40
2022-11-04T00:55:11.936Z,11.50
2022-11-04T00:57:41.133Z,11.40
2022-11-04T01:00:10.262Z,11.40
2022-11-04T01:02:38.234Z,11.40
2022-11-04T01:05:06.899Z,11.50
2022-11-04T01:07:37.415Z,11.50
2022-11-04T01:10:10.399Z,11.50
2022-11-04T01:12:38.300Z,11.50
2022-11-04T01:15:08.348Z,11.50
2022-11-04T01:17:36.205Z,11.50
2022-11-04T01:20:04.299Z,11.50
2022-11-04T01:22:32.313Z,11.50
2022-11-04T01:25:00.281Z,11.50
2022-11-04T01:27:28.144Z,11.50
2022-11-04T01:29:56.001Z,11.50
2022-11-04T01:32:25.303Z,11.50
2022-11-04T01:34:53.126Z,11.50
2022-11-04T01:37:20.991Z,11.50
2022-11-04T01:39:48.812Z,11.50
2022-11-04T01:42:16.838Z,11.50
2022-11-04T01:44:49.780Z,11.50
2022-11-04T01:47:20.225Z,11.50
2022-11-04T01:49:53.858Z,11.50
2022-11-04T01:52:28.509Z,11.50
2022-11-04T01:55:00.693Z,11.50
2022-11-04T01:57:34.336Z,11.50
2022-11-04T02:00:05.808Z,11.50
2022-11-04T02:02:33.899Z,11.50
2022-11-04T02:05:03.181Z,11.50
2022-11-04T02:07:31.509Z,11.50
2022-11-04T02:09:59.541Z,11.50
2022-11-04T02:12:45.182Z,11.50
2022-11-04T02:15:13.131Z,11.50
2022-11-04T02:17:57.426Z,11.50
2022-11-04T02:20:36.615Z,11.40
2022-11-04T02:23:31.188Z,11.40
2022-11-04T02:26:42.740Z,11.40
2022-11-04T02:29:36.663Z,11.40
2022-11-04T02:32:11.458Z,11.40
2022-11-04T02:34:46.042Z,11.30
2022-11-04T02:37:22.134Z,11.30
2022-11-04T02:39:53.736Z,11.30
2022-11-04T02:42:30.245Z,11.30
2022-11-04T02:45:11.856Z,11.20
2022-11-04T02:47:44.997Z,11.20
2022-11-04T02:50:18.174Z,11.20
2022-11-04T02:52:52.070Z,11.20
2022-11-04T02:55:24.413Z,11.20
2022-11-04T02:57:54.886Z,11.20
2022-11-04T03:00:24.724Z,11.10
2022-11-04T03:02:56.216Z,11.10
2022-11-04T03:05:28.927Z,11.10
2022-11-04T03:08:00.431Z,11.10
2022-11-04T03:10:34.746Z,11.10
2022-11-04T03:13:07.085Z,11.10
2022-11-04T03:15:38.306Z,11.00
2022-11-04T03:18:17.652Z,11.00
2022-11-04T03:20:47.569Z,11.00
2022-11-04T03:23:16.515Z,11.00
2022-11-04T03:25:47.678Z,11.00
2022-11-04T03:28:30.659Z,10.90
2022-11-04T03:31:05.021Z,10.90
2022-11-04T03:33:41.787Z,10.90
2022-11-04T03:36:10.112Z,10.90
2022-11-04T03:38:39.101Z,10.90
2022-11-04T03:41:14.128Z,10.80
2022-11-04T03:43:42.747Z,10.80
2022-11-04T03:46:12.289Z,10.70
2022-11-04T03:48:41.778Z,10.70
2022-11-04T03:51:10.235Z,10.70
2022-11-04T03:53:38.259Z,10.70
2022-11-04T03:56:23.568Z,10.60
2022-11-04T03:59:04.508Z,10.70
2022-11-04T04:01:44.404Z,10.70
2022-11-04T04:04:20.553Z,10.70
2022-11-04T04:06:51.846Z,10.70
2022-11-04T04:09:24.069Z,10.60
2022-11-04T04:11:57.269Z,10.60
2022-11-04T04:14:42.153Z,10.60
2022-11-04T04:17:19.496Z,10.60
2022-11-04T04:19:50.902Z,10.60
2022-11-04T04:22:22.602Z,10.60
2022-11-04T04:25:11.894Z,10.60
2022-11-04T04:27:41.290Z,10.60
2022-11-04T04:30:12.528Z,10.60
2022-11-04T04:32:45.467Z,10.60
2022-11-04T04:35:31.529Z,10.60
2022-11-04T04:38:17.352Z,10.60
2022-11-04T04:41:05.656Z,10.60
2022-11-04T04:43:51.305Z,10.70
2022-11-04T04:46:19.606Z,10.70
2022-11-04T04:48:48.788Z,10.70
2022-11-04T04:51:17.154Z,10.60
2022-11-04T04:53:45.066Z,10.60
2022-11-04T04:56:12.866Z,10.60
2022-11-04T04:58:40.687Z,10.60
2022-11-04T05:01:09.086Z,10.60
2022-11-04T05:03:41.016Z,10.60
2022-11-04T05:06:13.206Z,10.60
2022-11-04T05:08:41.052Z,10.60
2022-11-04T05:11:08.876Z,10.60
2022-11-04T05:13:36.752Z,10.60
2022-11-04T05:16:06.599Z,10.50
2022-11-04T05:18:34.748Z,10.50
2022-11-04T05:21:05.139Z,10.50
2022-11-04T05:23:35.093Z,10.50
2022-11-04T05:26:03.010Z,10.50
2022-11-04T05:28:30.880Z,10.40
2022-11-04T05:31:03.225Z,10.40
2022-11-04T05:33:31.253Z,10.40
2022-11-04T05:36:07.848Z,10.40
2022-11-04T05:38:37.235Z,10.40
2022-11-04T05:41:05.509Z,10.30
2022-11-04T05:43:33.710Z,10.30
2022-11-04T05:46:02.182Z,10.30
2022-11-04T05:48:30.658Z,10.30
2022-11-04T05:50:58.504Z,10.20
2022-11-04T05:55:56.528Z,10.20
2022-11-04T05:58:24.363Z,10.10
2022-11-04T06:00:52.192Z,10.10
2022-11-04T06:03:20.063Z,10.10
2022-11-04T06:05:47.945Z,10.10
2022-11-04T06:08:15.760Z,10.10
2022-11-04T06:10:44.388Z,10.10
2022-11-04T06:13:13.551Z,10.10
2022-11-04T06:15:41.431Z,10.10
2022-11-04T06:18:09.535Z,10.10
2022-11-04T06:20:37.577Z,10.10
2022-11-04T06:23:05.653Z,10.00
2022-11-04T06:25:33.500Z,10.10
2022-11-04T06:28:01.373Z,10.00
2022-11-04T06:30:30.593Z,10.00
2022-11-04T06:32:58.465Z,10.00
2022-11-04T06:35:26.337Z,10.00
2022-11-04T06:37:56.214Z,10.00
2022-11-04T06:40:24.229Z,10.00
2022-11-04T06:42:52.062Z,9.90
2022-11-04T06:45:19.909Z,10.00
2022-11-04T06:47:49.119Z,10.00
2022-11-04T06:50:17.022Z,10.00
2022-11-04T06:52:44.876Z,9.90
2022-11-04T06:55:12.782Z,9.90
2022-11-04T06:57:40.842Z,9.90
2022-11-04T07:00:10.425Z,10.00
2022-11-04T07:02:38.814Z,10.00
2022-11-04T07:05:08.994Z,9.90
2022-11-04T07:07:36.874Z,10.00
2022-11-04T07:10:05.215Z,10.00
2022-11-04T07:12:33.056Z,10.00
2022-11-04T07:15:00.978Z,10.00
2022-11-04T07:17:28.874Z,10.00
2022-11-04T07:19:56.830Z,10.00
2022-11-04T07:22:26.095Z,10.10
2022-11-04T07:24:53.968Z,10.10
2022-11-04T07:27:21.829Z,10.10
2022-11-04T07:29:49.768Z,10.10
2022-11-04T07:32:17.650Z,10.20
2022-11-04T07:34:45.463Z,10.20
2022-11-04T07:37:13.339Z,10.30
2022-11-04T07:39:42.645Z,10.30
2022-11-04T07:42:10.501Z,10.30
2022-11-04T07:44:38.372Z,10.40
2022-11-04T07:47:06.286Z,10.40
2022-11-04T07:49:34.640Z,10.40
2022-11-04T07:52:02.538Z,10.40
2022-11-04T07:54:30.409Z,10.40
2022-11-04T07:56:59.838Z,10.40
2022-11-04T07:59:28.050Z,10.40
2022-11-04T08:01:56.234Z,10.50
2022-11-04T08:04:24.291Z,10.50
2022-11-04T08:06:52.345Z,10.50
2022-11-04T08:09:20.293Z,10.50
2022-11-04T08:11:48.294Z,10.60
2022-11-04T08:14:17.553Z,10.60
2022-11-04T08:16:45.413Z,10.60
2022-11-04T08:19:13.277Z,10.60
2022-11-04T08:21:41.097Z,10.70
2022-11-04T08:24:09.034Z,10.70
2022-11-04T08:26:37.026Z,10.80
2022-11-04T08:29:08.092Z,10.80
2022-11-04T08:31:38.033Z,10.90
2022-11-04T08:34:08.408Z,10.90
2022-11-04T08:36:38.444Z,11.00
2022-11-04T08:39:10.996Z,11.00
2022-11-04T08:41:40.977Z,11.00
2022-11-04T08:44:09.983Z,11.10
2022-11-04T08:46:42.586Z,11.10
2022-11-04T08:49:12.880Z,11.20
2022-11-04T08:51:46.534Z,11.30
2022-11-04T08:54:14.393Z,11.30
2022-11-04T08:56:42.258Z,11.40
2022-11-04T08:59:11.616Z,11.40
2022-11-04T09:01:41.024Z,11.50
2022-11-04T09:04:09.161Z,11.50
2022-11-04T09:06:39.231Z,11.60
2022-11-04T09:09:07.962Z,11.70
2022-11-04T09:11:39.223Z,11.80
2022-11-04T09:14:07.297Z,11.90
2022-11-04T09:16:36.494Z,12.00
2022-11-04T09:19:05.842Z,12.00
2022-11-04T09:21:33.859Z,12.10
2022-11-04T09:24:01.748Z,12.10
2022-11-04T09:26:29.679Z,12.10
2022-11-04T09:28:58.447Z,12.20
2022-11-04T09:31:27.688Z,12.20
2022-11-04T09:33:55.960Z,12.20
2022-11-04T09:36:25.748Z,12.20
2022-11-04T09:38:53.884Z,12.20
2022-11-04T09:41:59.963Z,12.20
2022-11-04T09:44:33.007Z,12.30
2022-11-04T09:47:04.000Z,12.30
2022-11-04T09:49:36.856Z,12.30
2022-11-04T09:52:13.982Z,12.40
2022-11-04T09:54:47.423Z,12.40
2022-11-04T09:57:19.368Z,12.50
2022-11-04T09:59:48.393Z,12.60
2022-11-04T10:02:57.469Z,12.70
2022-11-04T10:05:46.627Z,12.90
2022-11-04T10:08:38.110Z,13.00
2022-11-04T10:11:11.779Z,13.10
2022-11-04T10:13:54.872Z,13.20
2022-11-04T10:16:34.354Z,13.30
2022-11-04T10:19:20.543Z,13.50
2022-11-04T10:21:58.312Z,13.60
2022-11-04T10:24:41.203Z,13.80
2022-11-04T10:27:16.394Z,13.90
2022-11-04T10:29:45.855Z,14.10
2022-11-04T10:32:22.639Z,14.20
2022-11-04T10:34:55.963Z,14.30
2022-11-04T10:37:26.179Z,14.30
2022-11-04T10:40:07.090Z,14.30
2022-11-04T10:42:35.097Z,14.40
2022-11-04T10:45:03.253Z,14.40
2022-11-04T10:47:40.740Z,14.50
2022-11-04T10:50:31.258Z,14.70
2022-11-04T10:53:15.657Z,14.80
2022-11-04T10:55:52.538Z,15.20
2022-11-04T10:58:24.842Z,15.50
2022-11-04T11:00:53.812Z,15.90
2022-11-04T11:03:31.542Z,16.40
2022-11-04T11:06:17.015Z,16.80
2022-11-04T11:08:45.800Z,17.40
2022-11-04T11:11:16.115Z,18.00
2022-11-04T11:13:46.375Z,18.40
2022-11-04T11:16:19.767Z,18.80
2022-11-04T11:19:15.411Z,18.90
2022-11-04T11:21:45.557Z,18.90
2022-11-04T11:24:20.781Z,18.80
2022-11-04T11:26:51.849Z,18.70
2022-11-04T11:29:23.171Z,18.60
2022-11-04T11:31:52.701Z,18.40
2022-11-04T11:34:26.342Z,18.30
2022-11-04T11:36:56.148Z,18.30
2022-11-04T11:39:28.015Z,18.10
2022-11-04T11:42:01.157Z,17.80
2022-11-04T11:44:32.952Z,17.50
2022-11-04T11:47:03.050Z,17.30
2022-11-04T11:49:33.858Z,17.00
2022-11-04T11:52:33.548Z,16.70
2022-11-04T11:55:07.402Z,16.40
2022-11-04T11:57:46.652Z,16.10
2022-11-04T12:00:40.202Z,15.90
2022-11-04T12:03:19.741Z,15.60
2022-11-04T12:11:55.175Z,15.00
2022-11-04T12:14:32.007Z,14.90
2022-11-04T12:17:06.342Z,14.80
2022-11-04T12:19:53.098Z,14.90
2022-11-04T12:22:30.020Z,15.00
2022-11-04T12:25:09.086Z,15.10
2022-11-04T12:27:42.224Z,15.20
2022-11-04T12:30:14.515Z,15.20
2022-11-04T12:32:51.716Z,15.30
2022-11-04T12:35:31.945Z,15.30
2022-11-04T12:38:12.809Z,15.40
2022-11-04T12:41:04.896Z,15.40
2022-11-04T12:43:45.860Z,15.30
2022-11-04T12:46:23.830Z,15.20
2022-11-04T12:49:19.369Z,15.10
2022-11-04T12:51:56.284Z,14.90
2022-11-04T12:54:51.195Z,14.70
2022-11-04T12:57:27.050Z,14.60
2022-11-04T13:00:06.319Z,14.40
2022-11-04T13:02:41.560Z,14.30
2022-11-04T13:05:25.829Z,14.20
2022-11-04T13:07:58.590Z,14.10
2022-11-04T13:10:33.616Z,14.00
2022-11-04T13:13:03.368Z,14.00
2022-11-04T13:15:37.673Z,13.90
2022-11-04T13:18:09.176Z,13.90
2022-11-04T13:20:44.461Z,13.80
2022-11-04T13:23:19.291Z,13.80
2022-11-04T13:25:49.495Z,13.80
2022-11-04T13:28:20.315Z,13.80
2022-11-04T13:30:54.729Z,13.80
2022-11-04T13:33:34.318Z,13.80
2022-11-04T13:36:13.902Z,13.80
2022-11-04T13:38:45.613Z,13.80
2022-11-04T13:41:41.067Z,13.90
2022-11-04T13:44:16.772Z,13.80
2022-11-04T13:46:49.711Z,13.80
2022-11-04T13:49:30.365Z,13.80
2022-11-04T13:52:06.863Z,13.80
2022-11-04T13:54:37.794Z,13.80
2022-11-04T13:57:08.796Z,13.80
2022-11-04T13:59:37.703Z,13.80
2022-11-04T14:02:40.196Z,13.80
2022-11-04T14:05:56.919Z,13.80
2022-11-04T14:08:26.276Z,13.80
2022-11-04T14:11:11.256Z,13.70
2022-11-04T14:14:05.488Z,13.70
2022-11-04T14:16:42.773Z,13.70
2022-11-04T14:19:59.308Z,13.70
2022-11-04T14:22:46.586Z,13.60
2022-11-04T14:25:25.729Z,13.60
2022-11-04T14:27:55.227Z,13.60
2022-11-04T14:30:36.573Z,13.50
2022-11-04T14:33:09.623Z,13.60
2022-11-04T14:35:37.911Z,13.60
2022-11-04T14:38:28.984Z,13.70
2022-11-04T14:41:21.661Z,13.70
2022-11-04T14:43:50.755Z,13.70
2022-11-04T14:46:23.621Z,13.70
2022-11-04T14:48:55.705Z,13.70
2022-11-04T14:51:29.055Z,13.70
2022-11-04T14:54:04.935Z,13.60
2022-11-04T14:56:34.233Z,13.60
2022-11-04T14:59:05.429Z,13.60
2022-11-04T15:01:35.632Z,13.50
2022-11-04T15:04:12.227Z,13.50
2022-11-04T15:06:54.466Z,13.50
2022-11-04T15:09:24.885Z,13.50
2022-11-04T15:12:20.450Z,13.50
2022-11-04T15:14:48.527Z,13.40
2022-11-04T15:17:21.329Z,13.40
2022-11-04T15:19:51.992Z,13.40
2022-11-04T15:22:21.015Z,13.30
2022-11-04T15:24:50.553Z,13.30
2022-11-04T15:27:25.789Z,13.20
2022-11-04T15:29:57.440Z,13.20
2022-11-04T15:32:26.083Z,13.20
2022-11-04T15:34:54.972Z,13.10
2022-11-04T15:37:24.577Z,13.10
2022-11-04T15:39:56.021Z,13.00
2022-11-04T15:42:42.919Z,12.90
2022-11-04T15:45:38.281Z,12.90
2022-11-04T15:48:29.713Z,12.80
2022-11-04T15:51:18.536Z,12.80
2022-11-04T15:53:55.431Z,12.70
2022-11-04T15:56:26.805Z,12.60
2022-11-04T15:58:58.042Z,12.60
2022-11-04T16:01:28.925Z,12.50
2022-11-04T16:03:58.691Z,12.50
2022-11-04T16:06:38.562Z,12.40
2022-11-04T16:09:19.954Z,12.30
2022-11-04T16:12:08.765Z,12.30
2022-11-04T16:14:38.032Z,12.30
2022-11-04T16:17:11.103Z,12.20
2022-11-04T16:19:39.161Z,12.20
2022-11-04T16:22:10.639Z,12.20
2022-11-04T16:24:41.813Z,12.10
2022-11-04T16:27:11.155Z,12.10
2022-11-04T16:29:45.208Z,12.10
2022-11-04T16:32:19.168Z,12.00
2022-11-04T16:34:49.082Z,12.00
2022-11-04T16:37:17.022Z,12.00
2022-11-04T16:39:46.268Z,12.00
2022-11-04T16:42:15.578Z,12.00
2022-11-04T16:44:50.378Z,12.00
2022-11-04T16:47:19.592Z,12.00
2022-11-04T16:49:47.700Z,12.00
2022-11-04T16:52:26.474Z,11.90
2022-11-04T16:54:56.220Z,11.90
2022-11-04T16:57:25.514Z,11.80
2022-11-04T16:59:55.979Z,11.80
2022-11-04T17:02:28.246Z,11.80
2022-11-04T17:04:56.776Z,11.70
2022-11-04T17:07:40.469Z,11.70
2022-11-04T17:10:17.846Z,11.70
2022-11-04T17:12:45.902Z,11.60
2022-11-04T17:15:16.365Z,11.60
2022-11-04T17:17:44.588Z,11.60
2022-11-04T17:20:14.950Z,11.50
2022-11-04T17:22:43.077Z,11.50
2022-11-04T17:25:17.066Z,11.50
2022-11-04T17:27:45.050Z,11.40
2022-11-04T17:30:15.018Z,11.40
2022-11-04T17:32:43.679Z,11.40
2022-11-04T17:35:12.540Z,11.40
2022-11-04T17:37:40.772Z,11.40
2022-11-04T17:40:10.322Z,11.30
2022-11-04T17:42:55.645Z,11.40
2022-11-04T17:45:24.949Z,11.30
2022-11-04T17:47:52.809Z,11.30
2022-11-04T17:50:20.691Z,11.30
2022-11-04T17:52:49.455Z,11.30
2022-11-04T17:55:20.781Z,11.20
2022-11-04T17:57:52.515Z,11.20
2022-11-04T18:00:24.139Z,11.20
2022-11-04T18:02:53.420Z,11.20
2022-11-04T18:05:21.335Z,11.20
2022-11-04T18:07:49.210Z,11.20
2022-11-04T18:10:17.130Z,11.10
2022-11-04T18:12:44.054Z,11.20
2022-11-04T18:15:13.732Z,11.10
2022-11-04T18:17:42.921Z,11.10
2022-11-04T18:20:14.793Z,11.10
2022-11-04T18:22:43.610Z,11.10
2022-11-04T18:25:12.348Z,11.10
2022-11-04T18:27:40.228Z,11.10
2022-11-04T18:30:09.150Z,11.10
2022-11-04T18:32:37.111Z,11.10
2022-11-04T18:35:05.527Z,11.00
2022-11-04T18:37:34.776Z,11.00
2022-11-04T18:40:02.660Z,10.90
2022-11-04T18:42:30.544Z,10.90
2022-11-04T18:44:58.391Z,10.90
2022-11-04T18:47:26.886Z,10.90
2022-11-04T18:49:55.782Z,10.90
2022-11-04T18:52:23.628Z,10.90
2022-11-04T18:54:52.810Z,10.90
2022-11-04T18:57:20.672Z,10.90
2022-11-04T18:59:48.548Z,10.90
2022-11-04T19:02:20.247Z,10.90
2022-11-04T19:04:48.238Z,10.80
2022-11-04T19:07:16.470Z,10.80
2022-11-04T19:09:47.533Z,10.80
2022-11-04T19:12:35.716Z,10.80
2022-11-04T19:15:04.888Z,10.80
2022-11-04T19:17:32.930Z,10.80
2022-11-04T19:20:05.482Z,10.80
2022-11-04T19:22:36.494Z,10.80
2022-11-04T19:25:04.656Z,10.80
2022-11-04T19:27:33.881Z,10.80
2022-11-04T19:30:01.818Z,10.80
2022-11-04T19:32:29.649Z,10.80
2022-11-04T19:34:57.533Z,10.80
2022-11-04T19:37:25.423Z,10.80
2022-11-04T19:39:53.315Z,10.80
2022-11-04T19:42:38.490Z,10.80
2022-11-04T19:45:08.802Z,10.80
2022-11-04T19:47:36.680Z,10.70
2022-11-04T19:50:04.975Z,10.70
2022-11-04T19:52:32.823Z,10.70
2022-11-04T19:55:00.696Z,10.70
2022-11-04T19:57:28.753Z,10.70
2022-11-04T19:59:57.288Z,10.70
2022-11-04T20:02:26.590Z,10.60
2022-11-04T20:04:54.521Z,10.70
2022-11-04T20:07:22.414Z,10.60
2022-11-04T20:09:50.329Z,10.60
2022-11-04T20:12:35.845Z,10.60
2022-11-04T20:15:03.935Z,10.60
2022-11-04T20:17:33.674Z,10.60
2022-11-04T20:20:01.547Z,10.60
2022-11-04T20:22:29.464Z,10.60
2022-11-04T20:24:57.830Z,10.60
2022-11-04T20:27:25.768Z,10.60
2022-11-04T20:29:53.878Z,10.60
2022-11-04T20:32:23.137Z,10.60
2022-11-04T20:34:53.417Z,10.60
2022-11-04T20:37:21.453Z,10.60
2022-11-04T20:39:49.399Z,10.60
2022-11-04T20:42:17.315Z,10.50
2022-11-04T20:44:45.362Z,10.50
2022-11-04T20:47:13.390Z,10.50
2022-11-04T20:49:41.231Z,10.40
2022-11-04T20:52:10.507Z,10.40
2022-11-04T20:54:38.476Z,10.30
2022-11-04T20:57:06.367Z,10.30
2022-11-04T20:59:34.352Z,10.30
2022-11-04T21:02:02.303Z,10.30
2022-11-04T21:04:35.837Z,10.40
2022-11-04T21:07:04.553Z,10.40
2022-11-04T21:09:33.819Z,10.40
2022-11-04T21:12:04.702Z,10.40
2022-11-04T21:14:34.718Z,10.30
2022-11-04T21:17:02.970Z,10.30
2022-11-04T21:19:31.019Z,10.30
2022-11-04T21:21:58.876Z,10.40
2022-11-04T21:24:26.915Z,10.40
2022-11-04T21:26:56.242Z,10.40
2022-11-04T21:29:24.354Z,10.40
2022-11-04T21:31:52.295Z,10.40
2022-11-04T21:34:20.256Z,10.40
2022-11-04T21:36:51.595Z,10.40
2022-11-04T21:39:19.664Z,10.40
2022-11-04T21:41:47.574Z,10.30
2022-11-04T21:44:16.824Z,10.30
2022-11-04T21:46:44.688Z,10.40
2022-11-04T21:49:13.683Z,10.40
2022-11-04T21:51:41.554Z,10.40
2022-11-04T21:54:09.439Z,10.40
2022-11-04T21:56:37.405Z,10.40
2022-11-04T21:59:06.533Z,10.40
2022-11-04T22:01:35.845Z,10.40
2022-11-04T22:04:04.360Z,10.40
2022-11-04T22:06:35.698Z,10.40
2022-11-04T22:09:05.798Z,10.40
2022-11-04T22:11:38.928Z,10.40
2022-11-04T22:14:08.423Z,10.40
2022-11-04T22:16:39.818Z,10.40
2022-11-04T22:19:10.156Z,10.40
2022-11-04T22:21:40.547Z,10.40
2022-11-04T22:24:09.956Z,10.40
2022-11-04T22:26:38.753Z,10.40
2022-11-04T22:29:06.792Z,10.40
2022-11-04T22:31:37.908Z,10.40
2022-11-04T22:34:06.181Z,10.30
2022-11-04T22:36:35.281Z,10.40
2022-11-04T22:39:03.328Z,10.30
2022-11-04T22:41:33.200Z,10.30
2022-11-04T22:44:01.112Z,10.30
2022-11-04T22:46:31.057Z,10.30
2022-11-04T22:49:00.528Z,10.40
2022-11-04T22:51:29.699Z,10.40
2022-11-04T22:54:02.822Z,10.40
2022-11-04T22:56:32.668Z,10.40
2022-11-04T22:59:01.472Z,10.40
2022-11-04T23:01:31.463Z,10.40
2022-11-04T23:04:01.121Z,10.40
2022-11-04T23:06:29.098Z,10.50
2022-11-04T23:09:00.320Z,10.50
2022-11-04T23:11:47.233Z,10.50
2022-11-04T23:14:34.237Z,10.50
2022-11-04T23:17:19.696Z,10.50
2022-11-04T23:19:51.649Z,10.50
2022-11-04T23:22:36.798Z,10.50
2022-11-04T23:25:09.562Z,10.50
2022-11-04T23:27:58.013Z,10.50
2022-11-04T23:30:26.326Z,10.50
2022-11-04T23:32:56.004Z,10.50
2022-11-04T23:35:45.209Z,10.50
2022-11-04T23:38:13.514Z,10.50
2022-11-04T23:40:41.432Z,10.50
2022-11-04T23:43:09.210Z,10.50
2022-11-04T23:45:54.842Z,10.50
2022-11-04T23:48:40.379Z,10.50
2022-11-04T23:51:29.007Z,10.50
2022-11-04T23:54:14.449Z,10.50
2022-11-04T23:56:59.781Z,10.50
2022-11-04T23:59:45.283Z,10.50
